createdAt,value
2022-09-13T00:00:59.528Z,5.35
2022-09-13T00:03:27.219Z,5.93
2022-09-13T00:05:54.082Z,4.65
2022-09-13T00:08:21.392Z,4.88
2022-09-13T00:10:48.763Z,6.22
2022-09-13T00:13:16.568Z,5.05
2022-09-13T00:15:48.310Z,5.32
2022-09-13T00:18:16.043Z,5.15
2022-09-13T00:20:43.395Z,5.32
2022-09-13T00:23:11.176Z,5.55
2022-09-13T00:25:38.556Z,4.75
2022-09-13T00:28:05.871Z,5.32
2022-09-13T00:30:33.573Z,4.50
2022-09-13T00:33:04.588Z,4.43
2022-09-13T00:35:32.006Z,5.30
2022-09-13T00:38:01.080Z,5.22
2022-09-13T00:40:30.606Z,4.63
2022-09-13T00:42:57.597Z,4.78
2022-09-13T00:45:24.546Z,5.05
2022-09-13T00:48:00.988Z,4.95
2022-09-13T00:50:37.965Z,5.30
2022-09-13T00:53:18.723Z,5.43
2022-09-13T00:56:22.868Z,5.60
2022-09-13T00:58:54.399Z,4.90
2022-09-13T01:01:24.184Z,5.30
2022-09-13T01:03:51.211Z,5.60
2022-09-13T01:06:21.286Z,5.15
2022-09-13T01:08:51.044Z,5.30
2022-09-13T01:11:32.938Z,5.20
2022-09-13T01:13:59.815Z,5.22
2022-09-13T01:16:27.183Z,5.57
2022-09-13T01:18:54.077Z,5.95
2022-09-13T01:21:33.930Z,5.35
2022-09-13T01:24:09.315Z,5.35
2022-09-13T01:27:00.962Z,4.97
2022-09-13T01:29:30.994Z,5.22
2022-09-13T01:32:25.496Z,5.75
2022-09-13T01:35:04.543Z,5.43
2022-09-13T01:37:43.663Z,4.55
2022-09-13T01:40:32.839Z,5.75
2022-09-13T01:43:08.328Z,5.28
2022-09-13T01:45:55.437Z,5.22
2022-09-13T01:48:41.815Z,5.05
2022-09-13T01:51:57.988Z,5.20
2022-09-13T01:54:27.767Z,4.63
2022-09-13T01:57:18.255Z,5.00
2022-09-13T02:00:08.310Z,4.90
2022-09-13T02:02:36.971Z,4.70
2022-09-13T02:05:17.563Z,5.70
2022-09-13T02:07:57.511Z,5.18
2022-09-13T02:10:29.636Z,4.78
2022-09-13T02:12:58.396Z,5.07
2022-09-13T02:15:50.087Z,5.25
2022-09-13T02:18:30.442Z,5.35
2022-09-13T02:21:03.175Z,4.70
2022-09-13T02:23:38.414Z,5.13
2022-09-13T02:26:06.191Z,4.90
2022-09-13T02:28:37.280Z,5.53
2022-09-13T02:31:06.019Z,4.78
2022-09-13T02:33:45.306Z,4.97
2022-09-13T02:36:17.696Z,5.05
2022-09-13T02:38:56.058Z,5.30
2022-09-13T02:41:37.631Z,6.20
2022-09-13T02:44:28.846Z,5.63
2022-09-13T02:46:55.603Z,5.43
2022-09-13T02:49:34.581Z,5.22
2022-09-13T02:52:19.985Z,5.57
2022-09-13T02:55:25.961Z,5.63
2022-09-13T02:58:00.418Z,5.97
2022-09-13T03:00:29.041Z,5.68
2022-09-13T03:02:57.255Z,5.53
2022-09-13T03:05:24.524Z,5.22
2022-09-13T03:07:51.909Z,4.93
2022-09-13T03:10:19.138Z,4.80
2022-09-13T03:13:27.824Z,5.57
2022-09-13T03:15:57.505Z,5.55
2022-09-13T03:18:59.599Z,6.07
2022-09-13T03:21:35.514Z,5.07
2022-09-13T03:24:24.784Z,5.53
2022-09-13T03:27:06.986Z,4.95
2022-09-13T03:29:56.303Z,6.22
2022-09-13T03:32:48.188Z,5.55
2022-09-13T03:35:17.808Z,5.53
2022-09-13T03:38:07.068Z,7.00
2022-09-13T03:40:34.042Z,5.80
2022-09-13T03:43:18.729Z,6.20
2022-09-13T03:45:51.921Z,6.20
2022-09-13T03:48:19.119Z,5.53
2022-09-13T03:50:46.990Z,5.63
2022-09-13T03:53:19.086Z,5.47
2022-09-13T03:55:46.217Z,5.83
2022-09-13T03:58:15.587Z,5.97
2022-09-13T04:00:42.629Z,5.30
2022-09-13T04:03:10.128Z,5.13
2022-09-13T04:05:37.190Z,5.57
2022-09-13T04:08:08.526Z,5.60
2022-09-13T04:10:36.359Z,5.35
2022-09-13T04:13:03.561Z,5.75
2022-09-13T04:15:33.728Z,7.25
2022-09-13T04:18:01.160Z,6.28
2022-09-13T04:20:28.383Z,5.63
2022-09-13T04:22:55.945Z,5.70
2022-09-13T04:25:23.380Z,6.18
2022-09-13T04:27:55.539Z,6.60
2022-09-13T04:30:23.063Z,5.97
2022-09-13T04:32:49.943Z,6.40
2022-09-13T04:35:18.126Z,6.38
2022-09-13T04:37:45.207Z,6.28
2022-09-13T04:40:13.273Z,6.78
2022-09-13T04:42:40.410Z,6.82
2022-09-13T04:45:08.268Z,6.50
2022-09-13T04:47:35.358Z,6.35
2022-09-13T04:50:02.242Z,6.10
2022-09-13T04:52:29.092Z,6.45
2022-09-13T04:54:55.956Z,6.88
2022-09-13T04:57:22.884Z,6.38
2022-09-13T04:59:49.789Z,6.72
2022-09-13T05:02:16.737Z,7.45
2022-09-13T05:04:43.717Z,7.22
2022-09-13T05:07:10.642Z,7.63
2022-09-13T05:09:37.627Z,7.32
2022-09-13T05:12:04.933Z,6.85
2022-09-13T05:14:31.828Z,6.72
2022-09-13T05:16:59.138Z,6.20
2022-09-13T05:19:26.421Z,7.00
2022-09-13T05:21:53.430Z,6.65
2022-09-13T05:24:20.360Z,6.57
2022-09-13T05:26:47.325Z,5.85
2022-09-13T05:29:14.301Z,6.28
2022-09-13T05:31:42.530Z,6.53
2022-09-13T05:34:20.043Z,6.97
2022-09-13T05:36:51.703Z,5.60
2022-09-13T05:39:36.524Z,6.25
2022-09-13T05:42:09.320Z,6.85
2022-09-13T05:44:36.263Z,6.35
2022-09-13T05:47:03.162Z,6.47
2022-09-13T05:49:30.085Z,6.18
2022-09-13T05:51:57.011Z,6.57
2022-09-13T05:54:24.129Z,6.00
2022-09-13T05:56:52.612Z,6.38
2022-09-13T05:59:20.113Z,6.65
2022-09-13T06:01:48.517Z,6.28
2022-09-13T06:04:15.486Z,6.15
2022-09-13T06:06:42.375Z,6.75
2022-09-13T06:09:12.078Z,6.10
2022-09-13T06:11:39.125Z,6.72
2022-09-13T06:14:06.068Z,6.45
2022-09-13T06:16:33.153Z,6.00
2022-09-13T06:19:00.220Z,6.55
2022-09-13T06:21:29.255Z,5.95
2022-09-13T06:23:56.936Z,5.50
2022-09-13T06:26:26.268Z,6.97
2022-09-13T06:28:55.517Z,6.57
2022-09-13T06:31:24.896Z,6.35
2022-09-13T06:34:00.365Z,5.93
2022-09-13T06:36:27.603Z,5.80
2022-09-13T06:38:54.516Z,6.10
2022-09-13T06:41:26.418Z,6.47
2022-09-13T06:43:58.573Z,6.32
2022-09-13T06:46:26.929Z,6.53
2022-09-13T06:48:54.532Z,7.03
2022-09-13T06:51:24.251Z,6.70
2022-09-13T06:53:52.139Z,5.90
2022-09-13T06:56:26.887Z,6.35
2022-09-13T06:58:57.671Z,6.20
2022-09-13T07:01:30.082Z,6.25
2022-09-13T07:04:01.607Z,6.68
2022-09-13T07:06:31.135Z,5.82
2022-09-13T07:08:59.960Z,7.03
2022-09-13T07:11:30.611Z,6.97
2022-09-13T07:13:58.802Z,6.43
2022-09-13T07:16:30.896Z,6.57
2022-09-13T07:19:04.680Z,6.87
2022-09-13T07:21:32.534Z,6.22
2022-09-13T07:23:59.511Z,6.72
2022-09-13T07:26:27.638Z,6.38
2022-09-13T07:28:56.954Z,5.78
2022-09-13T07:31:32.049Z,5.72
2022-09-13T07:34:00.617Z,6.18
2022-09-13T07:36:29.286Z,5.80
2022-09-13T07:38:56.681Z,6.00
2022-09-13T07:41:25.437Z,5.10
2022-09-13T07:43:52.857Z,5.88
2022-09-13T07:46:24.234Z,5.78
2022-09-13T07:48:54.113Z,5.88
2022-09-13T07:51:26.150Z,7.55
2022-09-13T07:53:57.699Z,6.03
2022-09-13T07:56:32.728Z,5.85
2022-09-13T07:59:01.424Z,5.95
2022-09-13T08:01:30.688Z,6.03
2022-09-13T08:04:03.000Z,5.60
2022-09-13T08:06:31.583Z,5.43
2022-09-13T08:08:58.856Z,5.30
2022-09-13T08:11:29.659Z,5.65
2022-09-13T08:13:56.523Z,5.63
2022-09-13T08:16:24.923Z,4.53
2022-09-13T08:18:53.562Z,5.75
2022-09-13T08:21:21.063Z,4.95
2022-09-13T08:23:48.394Z,4.95
2022-09-13T08:26:15.686Z,5.20
2022-09-13T08:28:43.380Z,4.47
2022-09-13T08:31:12.520Z,4.45
2022-09-13T08:33:44.219Z,5.05
2022-09-13T08:36:13.210Z,5.28
2022-09-13T08:38:40.257Z,5.10
2022-09-13T08:41:32.450Z,4.28
2022-09-13T08:44:26.726Z,4.43
2022-09-13T08:46:59.665Z,4.25
2022-09-13T08:52:46.373Z,4.20
2022-09-13T08:55:54.874Z,4.28
2022-09-13T08:58:52.579Z,3.80
2022-09-13T09:01:22.603Z,3.97
2022-09-13T09:04:04.150Z,4.70
2022-09-13T09:06:31.079Z,4.22
2022-09-13T09:09:03.462Z,4.38
2022-09-13T09:11:41.947Z,4.88
2022-09-13T09:14:25.391Z,4.15
2022-09-13T09:16:55.941Z,4.60
2022-09-13T09:19:34.604Z,4.25
2022-09-13T09:22:05.014Z,3.65
2022-09-13T09:24:36.465Z,4.20
2022-09-13T09:27:16.016Z,3.97
2022-09-13T09:29:47.132Z,4.55
2022-09-13T09:32:39.273Z,3.90
2022-09-13T09:35:27.399Z,4.28
2022-09-13T09:38:24.046Z,3.58
2022-09-13T09:40:51.222Z,3.20
2022-09-13T09:43:39.234Z,3.83
2022-09-13T09:46:09.394Z,3.50
2022-09-13T09:48:44.954Z,3.15
2022-09-13T09:51:14.157Z,2.92
2022-09-13T09:53:44.593Z,3.95
2022-09-13T09:56:26.464Z,3.05
2022-09-13T09:58:55.986Z,3.33
2022-09-13T10:01:37.726Z,3.90
2022-09-13T10:04:19.631Z,3.10
2022-09-13T10:06:47.440Z,3.97
2022-09-13T10:09:14.222Z,3.70
2022-09-13T10:12:01.374Z,4.10
2022-09-13T10:14:41.928Z,4.10
2022-09-13T10:17:17.152Z,3.70
2022-09-13T10:20:19.237Z,3.53
2022-09-13T10:23:08.650Z,3.65
2022-09-13T10:25:37.170Z,3.63
2022-09-13T10:28:05.376Z,4.10
2022-09-13T10:30:32.380Z,3.10
2022-09-13T10:32:59.771Z,3.78
2022-09-13T10:35:27.006Z,3.47
2022-09-13T10:37:53.898Z,3.70
2022-09-13T10:40:29.539Z,3.95
2022-09-13T10:43:01.849Z,3.70
2022-09-13T10:45:31.488Z,3.63
2022-09-13T10:48:14.547Z,3.42
2022-09-13T10:53:33.878Z,3.08
2022-09-13T10:56:02.673Z,3.90
2022-09-13T10:58:29.707Z,3.30
2022-09-13T11:01:11.021Z,3.35
2022-09-13T11:03:51.421Z,2.38
2022-09-13T11:06:42.479Z,2.90
2022-09-13T11:09:16.770Z,2.40
2022-09-13T11:12:02.254Z,2.30
2022-09-13T11:15:03.809Z,2.97
2022-09-13T11:17:39.180Z,2.72
2022-09-13T11:20:12.377Z,3.35
2022-09-13T11:22:53.564Z,2.90
2022-09-13T11:25:37.334Z,2.63
2022-09-13T11:31:06.706Z,3.40
2022-09-13T11:33:47.244Z,3.78
2022-09-13T11:36:26.401Z,3.42
2022-09-13T11:39:17.519Z,3.92
2022-09-13T11:42:03.134Z,2.92
2022-09-13T11:44:57.333Z,3.83
2022-09-13T11:47:43.058Z,2.80
2022-09-13T11:50:39.875Z,3.83
2022-09-13T11:53:06.995Z,4.10
2022-09-13T11:55:43.608Z,2.65
2022-09-13T11:58:18.450Z,2.90
2022-09-13T12:00:49.449Z,2.90
2022-09-13T12:03:49.125Z,2.60
2022-09-13T12:06:28.326Z,2.72
2022-09-13T12:09:00.491Z,2.67
2022-09-13T12:11:34.108Z,3.85
2022-09-13T12:14:04.850Z,3.60
2022-09-13T12:16:43.395Z,2.67
2022-09-13T12:19:22.284Z,3.40
2022-09-13T12:21:49.838Z,2.28
2022-09-13T12:24:41.000Z,2.58
2022-09-13T12:27:39.169Z,2.47
2022-09-13T12:30:07.068Z,3.63
2022-09-13T12:32:33.927Z,3.33
2022-09-13T12:35:12.883Z,3.08
2022-09-13T12:37:58.370Z,3.15
2022-09-13T12:40:45.794Z,2.60
2022-09-13T12:43:31.993Z,2.92
2022-09-13T12:46:08.285Z,2.80
2022-09-13T12:48:55.799Z,3.20
2022-09-13T12:51:56.771Z,3.05
2022-09-13T12:54:55.459Z,3.38
2022-09-13T12:57:34.577Z,2.22
2022-09-13T13:00:23.552Z,2.88
2022-09-13T13:03:02.851Z,2.42
2022-09-13T13:05:35.743Z,2.60
2022-09-13T13:10:36.796Z,3.40
2022-09-13T13:13:32.689Z,2.40
2022-09-13T13:16:03.543Z,2.78
2022-09-13T13:18:45.186Z,2.95
2022-09-13T13:21:28.935Z,2.80
2022-09-13T13:24:17.404Z,3.00
2022-09-13T13:26:55.299Z,2.72
2022-09-13T13:29:29.993Z,2.72
2022-09-13T13:32:07.533Z,2.83
2022-09-13T13:34:45.322Z,2.70
2022-09-13T13:37:12.123Z,3.00
2022-09-13T13:39:47.078Z,3.08
2022-09-13T13:42:26.574Z,3.25
2022-09-13T13:44:53.370Z,3.03
2022-09-13T13:47:20.426Z,2.70
2022-09-13T13:50:04.342Z,3.13
2022-09-13T13:52:52.517Z,2.53
2022-09-13T13:55:42.669Z,2.83
2022-09-13T13:58:34.082Z,3.55
2022-09-13T14:01:02.636Z,3.30
2022-09-13T14:03:50.220Z,3.33
2022-09-13T14:06:49.735Z,3.80
2022-09-13T14:09:38.510Z,2.75
2022-09-13T14:12:14.575Z,2.40
2022-09-13T14:15:28.861Z,2.83
2022-09-13T14:18:20.492Z,3.08
2022-09-13T14:21:05.017Z,2.65
2022-09-13T14:23:34.754Z,3.42
2022-09-13T14:26:02.296Z,3.00
2022-09-13T14:28:29.345Z,3.83
2022-09-13T14:30:58.591Z,3.78
2022-09-13T14:33:35.185Z,4.85
2022-09-13T14:36:21.528Z,3.83
2022-09-13T14:38:55.672Z,3.67
2022-09-13T14:41:30.771Z,3.28
2022-09-13T14:44:22.502Z,3.47
2022-09-13T14:47:09.370Z,4.03
2022-09-13T14:49:40.395Z,4.80
2022-09-13T14:52:10.851Z,4.00
2022-09-13T14:54:40.566Z,4.53
2022-09-13T14:57:14.780Z,4.25
2022-09-13T14:59:48.177Z,4.60
2022-09-13T15:02:26.867Z,5.10
2022-09-13T15:04:55.825Z,4.22
2022-09-13T15:07:24.690Z,5.97
2022-09-13T15:09:56.809Z,5.25
2022-09-13T15:12:27.154Z,5.35
2022-09-13T15:15:42.254Z,6.63
2022-09-13T15:18:19.950Z,5.60
2022-09-13T15:20:51.117Z,5.53
2022-09-13T15:23:36.286Z,5.40
2022-09-13T15:26:21.163Z,5.20
2022-09-13T15:29:05.575Z,5.35
2022-09-13T15:31:34.587Z,6.63
2022-09-13T15:34:22.312Z,5.97
2022-09-13T15:37:13.209Z,6.32
2022-09-13T15:39:49.855Z,6.90
2022-09-13T15:42:17.606Z,6.55
2022-09-13T15:44:44.692Z,6.85
2022-09-13T15:47:18.633Z,7.60
2022-09-13T15:49:50.521Z,6.78
2022-09-13T15:52:18.990Z,7.55
2022-09-13T15:54:49.256Z,7.97
2022-09-13T15:57:22.703Z,8.25
2022-09-13T15:59:50.026Z,8.55
2022-09-13T16:02:23.189Z,9.88
2022-09-13T16:04:50.360Z,9.75
2022-09-13T16:07:17.516Z,10.23
2022-09-13T16:09:45.094Z,10.38
2022-09-13T16:12:11.924Z,11.10
2022-09-13T16:14:38.850Z,9.90
2022-09-13T16:17:10.214Z,10.23
2022-09-13T16:19:37.194Z,10.52
2022-09-13T16:22:04.157Z,9.75
2022-09-13T16:24:31.295Z,9.68
2022-09-13T16:27:01.576Z,10.90
2022-09-13T16:29:28.716Z,11.55
2022-09-13T16:31:57.794Z,11.43
2022-09-13T16:34:24.749Z,10.25
2022-09-13T16:36:51.703Z,10.52
2022-09-13T16:39:19.198Z,10.65
2022-09-13T16:41:46.466Z,10.30
2022-09-13T16:44:14.596Z,11.52
2022-09-13T16:46:41.952Z,11.15
2022-09-13T16:49:08.927Z,10.82
2022-09-13T16:51:36.605Z,11.13
2022-09-13T16:54:04.256Z,10.35
2022-09-13T16:56:32.121Z,12.90
2022-09-13T16:58:59.083Z,13.65
2022-09-13T17:01:27.777Z,11.25
2022-09-13T17:03:55.418Z,9.98
2022-09-13T17:06:23.821Z,9.60
2022-09-13T17:09:01.278Z,9.75
2022-09-13T17:11:30.757Z,10.13
2022-09-13T17:13:57.854Z,10.07
2022-09-13T17:16:37.428Z,10.32
2022-09-13T17:19:07.507Z,8.95
2022-09-13T17:21:35.203Z,10.13
2022-09-13T17:24:02.537Z,17.15
2022-09-13T17:26:29.587Z,9.32
2022-09-13T17:28:56.598Z,9.77
2022-09-13T17:31:23.656Z,9.73
2022-09-13T17:33:50.680Z,10.57
2022-09-13T17:36:17.884Z,11.35
2022-09-13T17:38:44.997Z,9.93
2022-09-13T17:41:14.498Z,9.60
2022-09-13T17:43:42.863Z,9.70
2022-09-13T17:46:24.073Z,9.00
2022-09-13T17:48:52.847Z,9.40
2022-09-13T17:51:23.025Z,10.50
2022-09-13T17:53:58.801Z,9.63
2022-09-13T17:56:29.820Z,10.43
2022-09-13T17:58:58.178Z,9.57
2022-09-13T18:01:25.171Z,10.07
2022-09-13T18:03:54.673Z,9.18
2022-09-13T18:06:22.030Z,9.68
2022-09-13T18:08:48.966Z,9.93
2022-09-13T18:11:22.230Z,8.98
2022-09-13T18:13:50.035Z,9.13
2022-09-13T18:16:21.882Z,10.27
2022-09-13T18:18:50.251Z,9.77
2022-09-13T18:21:19.260Z,10.25
2022-09-13T18:23:50.917Z,10.23
2022-09-13T18:26:22.965Z,9.50
2022-09-13T18:29:04.078Z,10.10
2022-09-13T18:31:32.787Z,8.98
2022-09-13T18:34:02.449Z,7.63
2022-09-13T18:36:31.095Z,7.35
2022-09-13T18:38:58.261Z,6.75
2022-09-13T18:41:31.531Z,7.53
2022-09-13T18:43:59.865Z,8.98
2022-09-13T18:46:32.592Z,8.10
2022-09-13T18:49:00.149Z,7.15
2022-09-13T18:51:29.556Z,7.63
2022-09-13T18:53:58.174Z,7.80
2022-09-13T18:56:25.543Z,8.38
2022-09-13T18:58:53.216Z,10.50
2022-09-13T19:01:29.341Z,8.80
2022-09-13T19:04:01.115Z,8.68
2022-09-13T19:06:34.199Z,10.05
2022-09-13T19:09:02.083Z,9.60
2022-09-13T19:11:49.490Z,10.15
2022-09-13T19:14:21.697Z,9.48
2022-09-13T19:16:48.668Z,9.83
2022-09-13T19:19:15.960Z,10.00
2022-09-13T19:21:43.163Z,8.40
2022-09-13T19:24:17.831Z,8.57
2022-09-13T19:26:47.086Z,9.07
2022-09-13T19:29:16.195Z,10.27
2022-09-13T19:31:47.712Z,10.30
2022-09-13T19:34:15.805Z,9.18
2022-09-13T19:36:44.266Z,8.85
2022-09-13T19:39:11.638Z,9.77
2022-09-13T19:41:39.698Z,7.90
2022-09-13T19:44:07.213Z,8.52
2022-09-13T19:46:40.439Z,8.85
2022-09-13T19:49:08.636Z,7.75
2022-09-13T19:51:38.564Z,9.30
2022-09-13T19:54:07.665Z,9.93
2022-09-13T19:56:38.132Z,8.43
2022-09-13T19:59:06.938Z,7.30
2022-09-13T20:01:36.760Z,8.10
2022-09-13T20:04:08.977Z,9.52
2022-09-13T20:06:41.353Z,9.67
2022-09-13T20:09:09.532Z,9.45
2022-09-13T20:11:41.921Z,10.05
2022-09-13T20:14:09.901Z,9.07
2022-09-13T20:16:38.587Z,8.38
2022-09-13T20:19:23.545Z,8.15
2022-09-13T20:21:53.672Z,7.97
2022-09-13T20:24:20.780Z,7.13
2022-09-13T20:26:49.420Z,8.02
2022-09-13T20:29:16.355Z,8.13
2022-09-13T20:31:43.189Z,9.60
2022-09-13T20:34:13.239Z,9.20
2022-09-13T20:36:44.063Z,8.88
2022-09-13T20:39:11.479Z,8.48
2022-09-13T20:41:38.434Z,7.50
2022-09-13T20:44:05.439Z,8.20
2022-09-13T20:46:32.438Z,8.80
2022-09-13T20:48:59.451Z,8.38
2022-09-13T20:51:29.561Z,6.30
2022-09-13T20:54:00.750Z,5.10
2022-09-13T20:56:29.045Z,5.65
2022-09-13T20:58:58.171Z,5.95
2022-09-13T21:01:26.635Z,5.95
2022-09-13T21:03:55.171Z,6.22
2022-09-13T21:06:24.252Z,6.10
2022-09-13T21:08:52.147Z,5.78
2022-09-13T21:11:32.943Z,5.63
2022-09-13T21:14:07.262Z,6.05
2022-09-13T21:16:39.810Z,6.18
2022-09-13T21:19:07.043Z,5.82
2022-09-13T21:21:38.734Z,5.65
2022-09-13T21:24:09.851Z,4.93
2022-09-13T21:26:37.874Z,2.35
2022-09-13T21:29:05.307Z,2.40
2022-09-13T21:31:34.055Z,2.67
2022-09-13T21:34:04.038Z,2.63
2022-09-13T21:36:32.428Z,1.85
2022-09-13T21:38:59.510Z,1.95
2022-09-13T21:41:27.452Z,2.10
2022-09-13T21:43:54.764Z,2.38
2022-09-13T21:46:24.039Z,2.25
2022-09-13T21:48:54.530Z,1.60
2022-09-13T21:51:26.669Z,1.77
2022-09-13T21:53:58.758Z,1.50
2022-09-13T21:56:28.736Z,1.60
2022-09-13T21:59:01.425Z,1.63
2022-09-13T22:01:35.522Z,1.98
2022-09-13T22:04:02.688Z,1.77
2022-09-13T22:06:35.199Z,1.60
2022-09-13T22:09:05.334Z,1.15
2022-09-13T22:11:38.723Z,1.73
2022-09-13T22:14:06.441Z,1.73
2022-09-13T22:16:35.674Z,1.50
2022-09-13T22:19:09.422Z,1.67
2022-09-13T22:21:39.448Z,1.83
2022-09-13T22:24:07.434Z,1.50
2022-09-13T22:26:36.996Z,1.50
2022-09-13T22:29:04.910Z,1.50
2022-09-13T22:31:35.216Z,1.10
2022-09-13T22:34:03.454Z,1.30
2022-09-13T22:36:30.814Z,1.63
2022-09-13T22:39:00.843Z,1.60
2022-09-13T22:41:34.847Z,1.77
2022-09-13T22:44:03.075Z,2.50
2022-09-13T22:46:31.259Z,2.30
2022-09-13T22:49:03.334Z,1.60
2022-09-13T22:51:30.494Z,1.97
2022-09-13T22:53:57.860Z,1.98
2022-09-13T22:56:30.482Z,2.03
2022-09-13T22:59:02.905Z,1.80
2022-09-13T23:01:40.421Z,2.25
2022-09-13T23:04:07.503Z,2.13
2022-09-13T23:06:35.042Z,2.20
2022-09-13T23:09:04.080Z,9.70
2022-09-13T23:11:33.306Z,2.85
2022-09-13T23:14:03.109Z,2.25
2022-09-13T23:16:36.622Z,2.08
2022-09-13T23:19:03.983Z,1.50
2022-09-13T23:21:33.487Z,2.00
2022-09-13T23:24:01.354Z,1.52
2022-09-13T23:26:29.264Z,1.98
2022-09-13T23:28:58.073Z,1.70
2022-09-13T23:31:27.025Z,1.63
2022-09-13T23:33:56.398Z,1.52
2022-09-13T23:36:26.056Z,1.70
2022-09-13T23:38:56.657Z,2.20
2022-09-13T23:41:25.603Z,2.50
2022-09-13T23:43:53.359Z,2.33
2022-09-13T23:46:25.783Z,1.95
2022-09-13T23:48:52.768Z,2.03
2022-09-13T23:51:23.229Z,1.90
2022-09-13T23:53:51.914Z,1.98
2022-09-13T23:56:19.268Z,1.58
2022-09-13T23:58:46.851Z,1.75
